Sandberg, California
Current Conditions -  °F | °C
As of 2:48 PM on Tuesday 25 Nov 2014 (Local Time) from KSDB Reporting Station
Clear Clear  
Wind Chill: 19°   Ceiling: Unl
Heat Index: 19°   Visibility: 10mi
Dew Point: -18°   Wind: 8mph
Humidity: 7%   Direction: 20°NNE
Pressure: 30.42"   Gusts: NA
Location:  34.6849°N, 118.558°W
Report Text: KSDB 252248Z AUTO 02007KT 10SM CLR 19/M18 A3042 RMK AO2 SLP264 T01941178
Loading
Personal Weather Stations






























Interactive Weather Map New forecast layout! Learn more

10-Day Weather Forecast

Advertisements
Track Severe Weather on mobile